Time;durP1;ratioP1;P1;durP2;ratioP2;P2;SDS_P1;SDS_P2;PMS_P1;PMS_P2;Temp;Humidity;BMP_temperature;BMP_pressure;BME280_temperature;BME280_humidity;BME280_pressure;Samples;Min_cycle;Max_cycle;Signal;HPM_P1;HPM_P2
2023/04/21 00:00:54;;;;;;;20.43;16.70;;;8.10;99.90;;;;;;5027448;28;37452;-79
2023/04/21 00:03:22;;;;;;;20.23;17.30;;;8.00;99.90;;;;;;5009433;28;37155;-78
2023/04/21 00:05:49;;;;;;;21.53;18.03;;;8.00;99.90;;;;;;5011883;28;36579;-78
2023/04/21 00:08:16;;;;;;;23.10;19.17;;;7.90;99.90;;;;;;5008453;28;38749;-78
2023/04/21 00:10:42;;;;;;;21.20;17.43;;;7.90;99.90;;;;;;5018248;28;38815;-78
2023/04/21 00:13:09;;;;;;;22.17;18.80;;;7.90;99.90;;;;;;5032635;28;36866;-79
2023/04/21 00:15:35;;;;;;;23.77;20.00;;;7.80;99.90;;;;;;5016087;28;36263;-79
2023/04/21 00:18:02;;;;;;;23.33;20.33;;;7.80;99.90;;;;;;5009873;28;40084;-79
2023/04/21 00:20:29;;;;;;;25.53;21.27;;;7.80;99.90;;;;;;5019715;28;39032;-78
2023/04/21 00:22:56;;;;;;;26.30;21.80;;;7.70;99.90;;;;;;5017874;28;38352;-79
2023/04/21 00:25:23;;;;;;;29.87;23.80;;;7.70;99.90;;;;;;5016507;28;36321;-79
2023/04/21 00:27:50;;;;;;;27.40;22.20;;;7.80;99.90;;;;;;5020946;28;37217;-79
2023/04/21 00:30:16;;;;;;;26.23;21.50;;;7.70;99.90;;;;;;5015738;28;37528;-78
2023/04/21 00:32:42;;;;;;;28.10;23.03;;;7.70;99.90;;;;;;5017332;28;38418;-78
2023/04/21 00:35:09;;;;;;;29.77;23.33;;;7.70;99.90;;;;;;5012810;28;36188;-77
2023/04/21 00:37:35;;;;;;;29.40;24.93;;;7.70;99.90;;;;;;5015493;28;38778;-77
2023/04/21 00:40:03;;;;;;;30.50;23.97;;;7.70;99.90;;;;;;5012372;28;37154;-78
2023/04/21 00:42:29;;;;;;;35.43;26.30;;;7.70;99.90;;;;;;4997976;28;37136;-76
2023/04/21 00:44:55;;;;;;;28.60;23.63;;;7.60;99.90;;;;;;5020858;28;36563;-78
2023/04/21 00:47:21;;;;;;;29.23;23.60;;;7.60;99.90;;;;;;5011282;28;37760;-77
2023/04/21 00:49:47;;;;;;;29.37;23.53;;;7.50;99.90;;;;;;5010663;28;37207;-77
2023/04/21 00:52:16;;;;;;;34.17;26.20;;;7.60;99.90;;;;;;5012926;28;35991;-77
2023/04/21 00:54:43;;;;;;;32.77;25.27;;;7.50;99.90;;;;;;5015243;28;37384;-78
2023/04/21 00:57:10;;;;;;;32.20;24.53;;;7.50;99.90;;;;;;5027847;28;37663;-78
2023/04/21 00:59:36;;;;;;;35.23;26.40;;;7.50;99.90;;;;;;5009007;28;37577;-78
2023/04/21 01:04:37;;;;;;;35.60;27.43;;;7.50;99.90;;;;;;4981332;28;20050;-77
2023/04/21 01:07:04;;;;;;;35.67;27.17;;;7.50;99.90;;;;;;4985304;28;37631;-76
2023/04/21 01:09:31;;;;;;;34.73;26.90;;;7.50;99.90;;;;;;4985202;28;37205;-76
2023/04/21 01:12:08;;;;;;;38.13;27.53;;;7.50;99.90;;;;;;5017639;28;37542;-77
2023/04/21 01:14:35;;;;;;;35.70;27.10;;;7.50;99.90;;;;;;4992555;28;47055;-77
2023/04/21 01:17:06;;;;;;;39.83;27.97;;;7.50;99.90;;;;;;4984376;28;38037;-77
2023/04/21 01:19:40;;;;;;;38.27;28.47;;;7.50;99.90;;;;;;4987229;28;38413;-77
2023/04/21 01:22:11;;;;;;;36.40;27.30;;;7.50;99.90;;;;;;4990852;28;36708;-78
2023/04/21 01:24:46;;;;;;;37.87;27.57;;;7.40;99.90;;;;;;4986378;28;37416;-77
2023/04/21 01:27:20;;;;;;;35.43;26.97;;;7.40;99.90;;;;;;5015222;28;38934;-78
2023/04/21 01:29:48;;;;;;;39.33;29.43;;;7.40;99.90;;;;;;4992626;28;37114;-78
2023/04/21 01:32:19;;;;;;;36.20;27.13;;;7.40;99.90;;;;;;4990822;28;38343;-77
2023/04/21 01:34:45;;;;;;;37.70;27.80;;;7.50;99.90;;;;;;5018947;28;36526;-78
2023/04/21 01:37:17;;;;;;;42.27;29.50;;;7.50;99.90;;;;;;5006933;28;38919;-78
2023/04/21 01:39:55;;;;;;;39.08;29.08;;;7.50;99.90;;;;;;5012671;28;37403;-78
2023/04/21 01:42:27;;;;;;;45.40;29.03;;;7.50;99.90;;;;;;5013314;28;38220;-79
2023/04/21 01:53:14;;;;;;;44.83;30.03;;;7.40;99.90;;;;;;5420553;22;20036;-80
2023/04/21 02:24:16;;;;;;;45.43;29.67;;;7.30;99.90;;;;;;5067783;23;20051;-79
2023/04/21 02:26:42;;;;;;;43.90;29.67;;;7.40;99.90;;;;;;4983571;28;36745;-79
2023/04/21 02:29:08;;;;;;;43.07;29.07;;;7.30;99.90;;;;;;4978186;28;38195;-77
2023/04/21 02:31:34;;;;;;;44.30;29.27;;;7.30;99.90;;;;;;4984471;28;38624;-77
2023/04/21 02:34:01;;;;;;;47.93;30.13;;;7.30;99.90;;;;;;4976603;28;38474;-77
2023/04/21 02:36:27;;;;;;;46.87;31.10;;;7.30;99.90;;;;;;4980274;28;46343;-78
2023/04/21 02:38:53;;;;;;;46.53;30.93;;;7.30;99.90;;;;;;4977888;28;38252;-77
2023/04/21 02:41:19;;;;;;;51.70;32.33;;;7.30;99.90;;;;;;4975033;28;38010;-77
2023/04/21 02:43:45;;;;;;;42.93;30.20;;;7.30;99.90;;;;;;4973498;28;36938;-77
2023/04/21 02:46:11;;;;;;;47.00;30.40;;;7.20;99.90;;;;;;4975633;28;37836;-76
2023/04/21 02:48:37;;;;;;;39.97;28.70;;;7.20;99.90;;;;;;4971375;28;37627;-77
2023/04/21 02:51:04;;;;;;;44.57;28.93;;;7.30;99.90;;;;;;4971706;28;38788;-78
2023/04/21 02:53:30;;;;;;;46.87;29.63;;;7.30;99.90;;;;;;4974584;28;37578;-77
2023/04/21 02:55:56;;;;;;;44.17;30.17;;;7.20;99.90;;;;;;4977076;28;36596;-78
2023/04/21 02:58:30;;;;;;;43.80;29.30;;;7.20;99.90;;;;;;4977693;28;38442;-78
2023/04/21 03:00:56;;;;;;;43.60;29.70;;;7.20;99.90;;;;;;4978315;28;37355;-77
2023/04/21 03:03:22;;;;;;;41.93;28.90;;;7.20;99.90;;;;;;4976338;28;38236;-77
2023/04/21 03:05:54;;;;;;;42.07;28.50;;;7.20;99.90;;;;;;4978125;28;38431;-77
2023/04/21 03:08:20;;;;;;;36.30;26.17;;;7.10;99.90;;;;;;4979302;28;37688;-77
2023/04/21 03:10:46;;;;;;;42.80;27.40;;;7.10;99.90;;;;;;4984673;28;38458;-77
2023/04/21 03:13:13;;;;;;;37.90;26.20;;;7.10;99.90;;;;;;4982738;28;36576;-77
2023/04/21 03:15:39;;;;;;;39.87;27.70;;;7.00;99.90;;;;;;4982392;28;36460;-78
2023/04/21 03:18:05;;;;;;;43.90;27.00;;;7.00;99.90;;;;;;4977009;28;37523;-78
2023/04/21 03:20:31;;;;;;;39.63;26.50;;;7.00;99.90;;;;;;4980380;28;37436;-77
2023/04/21 03:22:57;;;;;;;36.77;26.70;;;6.90;99.90;;;;;;4975706;28;37993;-77
2023/04/21 03:25:26;;;;;;;35.83;26.20;;;6.90;99.90;;;;;;4976873;28;38165;-77
2023/04/21 03:27:55;;;;;;;43.80;29.23;;;6.90;99.90;;;;;;4976745;28;39304;-77
2023/04/21 03:30:24;;;;;;;43.37;28.63;;;6.90;99.90;;;;;;4971939;28;38146;-77
2023/04/21 03:32:50;;;;;;;35.83;25.43;;;6.90;99.90;;;;;;4973140;28;37891;-77
2023/04/21 03:35:16;;;;;;;39.83;27.97;;;6.90;99.90;;;;;;4969574;28;37855;-77
2023/04/21 03:37:43;;;;;;;49.70;33.87;;;6.90;99.90;;;;;;4967739;28;37479;-77
2023/04/21 03:40:09;;;;;;;49.23;31.47;;;6.90;99.90;;;;;;4968104;28;39199;-77
2023/04/21 03:42:36;;;;;;;45.13;31.53;;;6.90;99.90;;;;;;4968881;28;38756;-77
2023/04/21 03:45:09;;;;;;;44.87;29.67;;;6.90;99.90;;;;;;4972036;28;37589;-77
2023/04/21 03:47:35;;;;;;;48.10;31.67;;;7.00;99.90;;;;;;4962808;28;49645;-77
2023/04/21 03:50:06;;;;;;;44.27;30.50;;;7.00;99.90;;;;;;4959638;28;37361;-76
2023/04/21 03:52:32;;;;;;;49.93;33.47;;;7.00;99.90;;;;;;4969393;28;48329;-76
2023/04/21 03:54:58;;;;;;;48.63;33.07;;;7.00;99.90;;;;;;4967355;28;37206;-75
2023/04/21 03:57:24;;;;;;;46.10;31.83;;;7.00;99.90;;;;;;4965620;28;39052;-76
2023/04/21 03:59:50;;;;;;;55.73;33.97;;;6.90;99.90;;;;;;4956463;28;37404;-76
2023/04/21 04:02:16;;;;;;;44.70;30.63;;;7.00;99.90;;;;;;4963232;28;38193;-75
2023/04/21 04:04:42;;;;;;;52.07;33.57;;;6.90;99.90;;;;;;4957851;28;38228;-76
2023/04/21 04:07:08;;;;;;;46.53;31.83;;;6.90;99.90;;;;;;4964619;28;38977;-75
2023/04/21 04:09:35;;;;;;;59.43;36.63;;;6.90;99.90;;;;;;4965563;28;38355;-76
2023/04/21 04:12:02;;;;;;;49.73;34.27;;;7.00;99.90;;;;;;4969729;28;37665;-76
2023/04/21 04:14:29;;;;;;;50.63;33.20;;;7.00;99.90;;;;;;4963623;28;47167;-76
2023/04/21 04:16:55;;;;;;;60.27;35.93;;;6.90;99.90;;;;;;4968679;28;37531;-77
2023/04/21 04:19:21;;;;;;;52.23;33.83;;;7.00;99.90;;;;;;4964767;28;37267;-76
2023/04/21 04:21:47;;;;;;;56.03;34.77;;;7.00;99.90;;;;;;4968655;28;37280;-76
2023/04/21 04:24:14;;;;;;;64.13;37.07;;;7.10;99.90;;;;;;4969330;28;36212;-76
2023/04/21 04:26:40;;;;;;;61.63;36.03;;;7.10;99.90;;;;;;4960749;28;39611;-77
2023/04/21 04:29:09;;;;;;;55.00;35.20;;;7.20;99.90;;;;;;4969583;28;37763;-77
2023/04/21 04:31:35;;;;;;;65.17;38.10;;;7.10;99.90;;;;;;4964295;28;37144;-76
2023/04/21 04:34:02;;;;;;;60.60;38.73;;;7.10;99.90;;;;;;4969355;28;37122;-76
2023/04/21 04:36:28;;;;;;;66.93;38.67;;;7.20;99.90;;;;;;4969091;28;47856;-75
2023/04/21 04:38:55;;;;;;;66.17;39.77;;;7.20;99.90;;;;;;4967763;28;38949;-77
2023/04/21 04:41:21;;;;;;;59.10;38.43;;;7.20;99.90;;;;;;4965966;28;37803;-76
2023/04/21 04:43:47;;;;;;;67.20;38.90;;;7.20;99.90;;;;;;4969727;28;38381;-76
2023/04/21 04:46:13;;;;;;;66.57;39.87;;;7.20;99.90;;;;;;4966533;28;37834;-76
2023/04/21 04:48:39;;;;;;;65.63;38.03;;;7.30;99.90;;;;;;4969809;28;37474;-75
2023/04/21 04:51:06;;;;;;;65.07;39.63;;;7.30;99.90;;;;;;4961384;28;37102;-76
2023/04/21 04:53:33;;;;;;;63.03;37.90;;;7.30;99.90;;;;;;4969357;28;38385;-75
2023/04/21 04:55:59;;;;;;;64.83;40.80;;;7.30;99.90;;;;;;4967385;28;38598;-75
2023/04/21 04:58:25;;;;;;;64.67;38.77;;;7.40;99.90;;;;;;4965294;28;38574;-75
2023/04/21 05:00:51;;;;;;;78.97;44.80;;;7.40;99.90;;;;;;4968523;28;37337;-76
2023/04/21 05:03:17;;;;;;;66.23;39.63;;;7.40;99.90;;;;;;4967273;28;36283;-77
2023/04/21 05:05:45;;;;;;;70.10;40.97;;;7.40;99.90;;;;;;4968684;28;39487;-77
2023/04/21 05:08:11;;;;;;;70.43;41.83;;;7.40;99.90;;;;;;4966343;28;37515;-76
2023/04/21 05:10:37;;;;;;;70.00;42.43;;;7.50;99.90;;;;;;4966787;28;37886;-76
2023/04/21 05:13:03;;;;;;;65.93;41.90;;;7.50;99.90;;;;;;4968699;28;36343;-76
2023/04/21 05:15:29;;;;;;;72.10;43.97;;;7.50;99.90;;;;;;4970568;28;38900;-76
2023/04/21 05:17:55;;;;;;;80.43;45.30;;;7.50;99.90;;;;;;4968728;28;37341;-76
2023/04/21 05:20:21;;;;;;;68.97;42.40;;;7.50;99.90;;;;;;4965930;28;38568;-77
2023/04/21 05:22:48;;;;;;;71.40;44.27;;;7.50;99.90;;;;;;4970240;28;36593;-75
2023/04/21 05:25:14;;;;;;;82.30;46.10;;;7.60;99.90;;;;;;4962751;28;38795;-75
2023/04/21 05:27:41;;;;;;;83.40;45.77;;;7.60;99.90;;;;;;4963882;28;38385;-76
2023/04/21 05:30:08;;;;;;;72.07;43.33;;;7.60;99.90;;;;;;4970029;28;38566;-77
2023/04/21 05:32:35;;;;;;;84.53;48.27;;;7.70;99.90;;;;;;4977108;28;36452;-76
2023/04/21 05:35:01;;;;;;;80.23;45.93;;;7.70;99.90;;;;;;4974510;28;37963;-76
2023/04/21 05:37:27;;;;;;;76.37;45.83;;;7.70;99.90;;;;;;4976704;28;37486;-76
2023/04/21 05:39:53;;;;;;;76.13;46.23;;;7.70;99.90;;;;;;4943374;28;37088;-74
2023/04/21 05:42:20;;;;;;;79.20;47.10;;;7.80;99.90;;;;;;4959909;28;36666;-75
2023/04/21 05:44:46;;;;;;;72.87;44.90;;;7.80;99.90;;;;;;4942528;28;38741;-75
2023/04/21 05:47:12;;;;;;;89.00;50.93;;;7.90;99.90;;;;;;4943086;28;37737;-77
2023/04/21 05:49:39;;;;;;;81.23;46.93;;;7.90;99.90;;;;;;4938798;28;36901;-75
2023/04/21 05:52:09;;;;;;;79.53;46.40;;;8.00;99.90;;;;;;4944470;28;36324;-74
2023/04/21 05:54:35;;;;;;;76.17;47.37;;;8.00;99.90;;;;;;4946713;28;37795;-76
2023/04/21 05:57:01;;;;;;;74.27;46.47;;;8.00;99.90;;;;;;4947025;28;37611;-77
2023/04/21 05:59:28;;;;;;;85.47;48.27;;;8.00;99.90;;;;;;4945562;28;47983;-77
2023/04/21 06:01:56;;;;;;;76.17;47.27;;;8.10;99.90;;;;;;4947998;28;35941;-77
2023/04/21 06:04:23;;;;;;;77.47;47.07;;;8.20;99.90;;;;;;4945421;28;41813;-75
2023/04/21 06:06:49;;;;;;;69.20;45.37;;;8.20;99.90;;;;;;4943887;28;38376;-72
2023/04/21 06:09:15;;;;;;;71.20;46.90;;;8.40;99.90;;;;;;4940871;28;38600;-72
2023/04/21 06:11:42;;;;;;;65.50;44.77;;;8.40;99.90;;;;;;4956484;28;37973;-78
2023/04/21 06:14:10;;;;;;;65.53;43.00;;;8.40;99.90;;;;;;4961405;28;37774;-78
2023/04/21 06:16:36;;;;;;;68.50;45.77;;;8.50;99.90;;;;;;4962755;28;38623;-77
2023/04/21 06:19:02;;;;;;;69.70;45.30;;;8.60;99.90;;;;;;4958955;28;38927;-77
2023/04/21 06:21:28;;;;;;;70.73;45.30;;;8.70;99.90;;;;;;4963728;28;35575;-79
2023/04/21 06:23:55;;;;;;;67.77;45.70;;;8.70;99.90;;;;;;4980200;28;37816;-78
2023/04/21 06:26:21;;;;;;;66.70;43.60;;;8.70;99.90;;;;;;4963693;28;37058;-78
2023/04/21 06:28:47;;;;;;;60.67;42.87;;;8.70;99.90;;;;;;4984580;28;37808;-78
2023/04/21 06:31:14;;;;;;;67.27;44.73;;;8.70;99.90;;;;;;4960327;28;37175;-77
2023/04/21 06:33:40;;;;;;;67.00;45.43;;;8.80;99.90;;;;;;4954458;28;38916;-78
2023/04/21 06:36:07;;;;;;;67.10;44.23;;;8.90;99.90;;;;;;4972572;28;38565;-78
2023/04/21 06:38:34;;;;;;;65.93;44.57;;;8.90;99.90;;;;;;4974187;28;20103;-79
2023/04/21 06:41:01;;;;;;;65.03;44.63;;;8.90;99.90;;;;;;4970392;28;35606;-78
2023/04/21 06:43:27;;;;;;;67.33;43.97;;;8.90;99.90;;;;;;4970986;28;39057;-79
2023/04/21 06:45:53;;;;;;;71.50;45.30;;;8.90;99.90;;;;;;4989082;28;37324;-79
2023/04/21 06:48:19;;;;;;;66.03;43.37;;;9.00;99.90;;;;;;4962310;28;36626;-79
2023/04/21 06:50:45;;;;;;;64.37;44.87;;;8.90;99.90;;;;;;4960309;28;35823;-76
2023/04/21 06:53:11;;;;;;;63.63;44.13;;;8.90;99.90;;;;;;4946746;28;39310;-76
2023/04/21 06:55:38;;;;;;;62.37;43.90;;;8.90;99.90;;;;;;4940753;28;37425;-76
2023/04/21 06:58:04;;;;;;;71.13;46.97;;;9.00;99.90;;;;;;4948871;28;37789;-75
2023/04/21 07:00:30;;;;;;;62.80;45.23;;;9.00;99.90;;;;;;4946360;28;37164;-76
2023/04/21 07:02:56;;;;;;;62.08;42.92;;;9.20;99.90;;;;;;4945058;28;38364;-77
2023/04/21 07:05:22;;;;;;;59.70;42.13;;;9.40;99.90;;;;;;4949394;28;37356;-76
2023/04/21 07:07:48;;;;;;;59.92;43.00;;;9.40;99.90;;;;;;4949186;28;36728;-75
2023/04/21 07:10:18;;;;;;;63.17;43.53;;;9.60;99.90;;;;;;4941819;28;36836;-76
2023/04/21 07:12:44;;;;;;;63.07;42.87;;;9.50;99.90;;;;;;4947317;28;38538;-76
2023/04/21 07:15:11;;;;;;;59.97;42.80;;;9.60;99.90;;;;;;4940577;28;37458;-76
2023/04/21 07:17:37;;;;;;;58.27;42.53;;;9.60;99.90;;;;;;4954701;28;35662;-76
2023/04/21 07:20:04;;;;;;;61.85;42.15;;;9.70;99.90;;;;;;4946872;28;37682;-76
2023/04/21 07:22:30;;;;;;;62.42;42.53;;;9.80;99.90;;;;;;4967721;28;38808;-76
2023/04/21 07:24:56;;;;;;;56.00;40.05;;;9.90;99.90;;;;;;4949281;28;37765;-76
2023/04/21 07:27:22;;;;;;;52.47;39.85;;;9.90;99.90;;;;;;4946009;28;38101;-77
2023/04/21 07:29:48;;;;;;;51.88;38.47;;;10.00;99.90;;;;;;4950700;28;36123;-77
2023/04/21 07:32:14;;;;;;;54.92;40.03;;;10.00;99.90;;;;;;4947642;28;39530;-77
2023/04/21 07:34:40;;;;;;;49.17;36.90;;;10.20;99.90;;;;;;4947618;28;39397;-76
2023/04/21 07:37:06;;;;;;;49.15;36.80;;;10.10;99.90;;;;;;4946544;28;36916;-77
2023/04/21 07:39:32;;;;;;;52.28;38.25;;;10.20;99.90;;;;;;4952161;28;37190;-76
2023/04/21 07:41:59;;;;;;;50.95;36.30;;;10.20;99.90;;;;;;4942750;28;39120;-77
2023/04/21 07:44:25;;;;;;;51.60;36.03;;;10.10;99.90;;;;;;4968237;28;39564;-76
2023/04/21 07:46:51;;;;;;;43.50;35.00;;;10.30;99.90;;;;;;4950277;28;38636;-77
2023/04/21 07:49:17;;;;;;;43.80;33.70;;;10.20;99.90;;;;;;4944370;28;38925;-77
2023/04/21 07:51:43;;;;;;;46.30;34.55;;;10.20;99.90;;;;;;4945528;28;37336;-76
2023/04/21 07:54:10;;;;;;;47.00;35.17;;;10.10;99.90;;;;;;4947370;28;38524;-76
2023/04/21 07:56:36;;;;;;;48.13;35.80;;;10.20;99.90;;;;;;4950144;28;36743;-76
2023/04/21 07:59:02;;;;;;;48.65;36.38;;;10.20;99.90;;;;;;4946475;28;37437;-75
2023/04/21 08:01:28;;;;;;;48.33;34.72;;;10.30;99.90;;;;;;4947865;28;38395;-76
2023/04/21 08:03:54;;;;;;;47.67;34.88;;;10.60;99.90;;;;;;4944960;28;39917;-76
2023/04/21 08:06:20;;;;;;;46.33;33.58;;;10.60;99.90;;;;;;4949491;28;36854;-76
2023/04/21 08:08:46;;;;;;;44.17;32.42;;;10.70;99.90;;;;;;4947857;28;38403;-75
2023/04/21 08:11:13;;;;;;;44.35;34.47;;;11.00;99.90;;;;;;4949302;28;38273;-76
2023/04/21 08:13:39;;;;;;;41.20;32.50;;;11.00;99.90;;;;;;4946830;28;38290;-76
2023/04/21 08:16:05;;;;;;;39.03;31.77;;;11.00;99.90;;;;;;4947191;28;36988;-76
2023/04/21 08:18:31;;;;;;;40.17;31.88;;;11.00;99.90;;;;;;4950537;28;37132;-76
2023/04/21 08:20:57;;;;;;;42.45;30.77;;;10.90;99.90;;;;;;4956967;28;38984;-76
2023/04/21 08:23:24;;;;;;;41.50;31.30;;;10.80;99.90;;;;;;4953248;28;38371;-76
2023/04/21 08:25:50;;;;;;;36.28;29.27;;;10.90;99.90;;;;;;4942777;28;38363;-76
2023/04/21 08:28:16;;;;;;;39.58;30.52;;;11.10;99.90;;;;;;4949934;28;36648;-76
2023/04/21 08:30:43;;;;;;;45.03;32.88;;;11.20;99.90;;;;;;4949335;28;37415;-77
2023/04/21 08:33:12;;;;;;;38.75;30.45;;;11.30;99.90;;;;;;4948106;28;39219;-75
2023/04/21 08:35:41;;;;;;;40.92;30.77;;;11.60;99.90;;;;;;4946603;28;38160;-75
2023/04/21 08:38:08;;;;;;;40.58;30.92;;;11.60;99.90;;;;;;4967264;28;37072;-76
2023/04/21 08:40:40;;;;;;;39.38;32.05;;;11.40;99.90;;;;;;4964455;28;38773;-76
2023/04/21 08:43:07;;;;;;;40.95;30.30;;;11.30;99.90;;;;;;4947713;28;36914;-76
2023/04/21 08:45:34;;;;;;;42.67;32.78;;;11.50;99.90;;;;;;4949410;28;37997;-76
2023/04/21 08:48:03;;;;;;;40.25;31.70;;;11.70;99.90;;;;;;4944179;28;37865;-76
2023/04/21 08:50:30;;;;;;;41.15;31.88;;;11.60;99.90;;;;;;4944928;28;47096;-76
2023/04/21 08:52:57;;;;;;;37.25;30.05;;;12.00;99.90;;;;;;4944563;28;38535;-76
2023/04/21 08:55:29;;;;;;;36.40;30.27;;;12.10;99.90;;;;;;4944783;28;36699;-76
2023/04/21 08:57:56;;;;;;;39.17;30.65;;;12.20;99.90;;;;;;4963077;28;35008;-76
2023/04/21 09:00:22;;;;;;;31.92;26.30;;;12.70;99.90;;;;;;4954402;28;39072;-75
2023/04/21 09:02:59;;;;;;;32.85;27.38;;;12.60;99.90;;;;;;4938976;28;38809;-75
2023/04/21 09:05:28;;;;;;;32.03;26.58;;;12.70;99.90;;;;;;4945113;28;37620;-77
2023/04/21 09:08:10;;;;;;;32.00;26.45;;;12.60;99.90;;;;;;4943628;28;36551;-76
2023/04/21 09:10:49;;;;;;;33.22;27.25;;;12.40;99.90;;;;;;4941724;28;48650;-76
2023/04/21 09:13:17;;;;;;;31.20;25.77;;;12.70;99.90;;;;;;4941152;28;37606;-79
2023/04/21 09:15:44;;;;;;;31.30;27.27;;;13.00;99.90;;;;;;4946265;28;38800;-76
2023/04/21 09:18:21;;;;;;;31.00;26.20;;;13.10;99.90;;;;;;4945930;28;37121;-76
2023/04/21 09:20:49;;;;;;;30.30;25.80;;;13.20;99.90;;;;;;4941980;28;37429;-75
2023/04/21 09:23:16;;;;;;;32.35;26.95;;;13.40;99.90;;;;;;4945886;28;37694;-75
2023/04/21 09:25:44;;;;;;;30.05;25.98;;;13.50;99.90;;;;;;4949397;28;37193;-74
2023/04/21 09:28:12;;;;;;;28.63;24.98;;;13.40;99.90;;;;;;4945465;28;37664;-78
2023/04/21 09:30:40;;;;;;;28.88;24.20;;;13.20;99.90;;;;;;4944781;28;37638;-76
2023/04/21 09:33:07;;;;;;;27.75;24.73;;;13.40;99.90;;;;;;4941709;28;38204;-74
2023/04/21 09:35:36;;;;;;;26.95;23.92;;;13.80;99.90;;;;;;4944269;28;38378;-75
2023/04/21 09:38:03;;;;;;;26.95;22.70;;;13.60;99.90;;;;;;4949928;28;38943;-76
2023/04/21 09:40:30;;;;;;;26.55;23.67;;;13.80;99.90;;;;;;4947010;28;37915;-77
2023/04/21 09:42:56;;;;;;;27.67;23.33;;;13.90;99.90;;;;;;4946632;28;39054;-77
2023/04/21 09:45:26;;;;;;;24.85;22.08;;;14.20;99.90;;;;;;4970232;28;37234;-74
2023/04/21 09:47:56;;;;;;;26.85;22.58;;;14.10;99.90;;;;;;4940975;28;36743;-76
2023/04/21 09:50:23;;;;;;;25.23;22.40;;;14.10;99.90;;;;;;4954994;28;38182;-76
2023/04/21 09:52:51;;;;;;;23.30;20.80;;;14.00;99.90;;;;;;4945452;28;40664;-77
2023/04/21 09:55:18;;;;;;;23.33;20.83;;;14.10;99.90;;;;;;4949814;28;37914;-76
2023/04/21 09:57:49;;;;;;;21.92;19.55;;;14.20;99.90;;;;;;4944911;28;37206;-77
2023/04/21 10:00:17;;;;;;;23.67;20.00;;;14.40;99.90;;;;;;4964649;28;39889;-77
2023/04/21 10:02:47;;;;;;;23.55;21.05;;;14.60;99.90;;;;;;4942533;28;39601;-77
2023/04/21 10:05:14;;;;;;;21.50;19.23;;;15.00;99.90;;;;;;4945905;28;38822;-76
2023/04/21 10:07:40;;;;;;;18.60;16.70;;;14.90;99.90;;;;;;4948854;28;36387;-77
2023/04/21 10:10:14;;;;;;;21.25;18.95;;;15.10;99.90;;;;;;4944134;28;38600;-77
2023/04/21 10:12:41;;;;;;;24.38;20.10;;;15.20;99.90;;;;;;4956335;28;37321;-78
2023/04/21 10:15:33;;;;;;;22.83;19.92;;;15.40;99.90;;;;;;4944217;28;37892;-76
2023/04/21 10:18:17;;;;;;;21.35;18.95;;;15.70;99.90;;;;;;4944238;28;36981;-76
2023/04/21 10:21:03;;;;;;;24.08;21.48;;;15.90;99.90;;;;;;4943412;28;49449;-78
2023/04/21 10:23:40;;;;;;;24.83;21.65;;;16.10;99.90;;;;;;4937833;28;46934;-77
2023/04/21 10:26:38;;;;;;;24.17;21.40;;;15.90;99.90;;;;;;4948106;28;37875;-77
2023/04/21 10:29:05;;;;;;;25.00;21.58;;;15.50;99.90;;;;;;4960078;28;37101;-77
2023/04/21 10:31:43;;;;;;;23.35;20.95;;;15.70;99.90;;;;;;4942916;28;37751;-76
2023/04/21 10:34:12;;;;;;;24.83;22.10;;;15.80;99.90;;;;;;4951684;28;38521;-75
2023/04/21 10:36:44;;;;;;;24.65;20.88;;;16.10;99.90;;;;;;4939287;28;38233;-77
2023/04/21 10:39:23;;;;;;;24.65;20.40;;;16.60;99.90;;;;;;4954539;28;36328;-76
2023/04/21 10:41:50;;;;;;;22.60;20.30;;;16.50;99.90;;;;;;4945777;28;39981;-75
2023/04/21 10:44:17;;;;;;;23.23;20.73;;;16.50;99.90;;;;;;4947738;28;38545;-77
2023/04/21 10:46:48;;;;;;;24.63;22.00;;;16.30;99.90;;;;;;4945814;28;37172;-76
2023/04/21 10:49:20;;;;;;;21.50;19.30;;;15.70;99.90;;;;;;4946339;28;38724;-76
2023/04/21 10:52:02;;;;;;;22.80;20.40;;;15.90;99.90;;;;;;4946616;28;37410;-77
2023/04/21 10:55:03;;;;;;;20.63;17.85;;;16.50;99.90;;;;;;4953643;28;47168;-75
2023/04/21 10:57:33;;;;;;;20.75;16.98;;;16.60;99.90;;;;;;4951629;28;47902;-75
2023/04/21 11:00:00;;;;;;;19.83;17.63;;;16.80;99.90;;;;;;4947444;28;39018;-78
2023/04/21 11:02:26;;;;;;;19.23;17.23;;;17.00;99.90;;;;;;4922844;28;38930;-84
2023/04/21 11:04:53;;;;;;;17.60;15.70;;;17.10;99.90;;;;;;4952123;28;39293;-85
2023/04/21 11:07:22;;;;;;;19.27;17.27;;;17.30;99.90;;;;;;4942018;28;38027;-82
2023/04/21 11:09:57;;;;;;;19.42;15.68;;;17.70;99.90;;;;;;4940972;28;38281;-75
2023/04/21 11:12:29;;;;;;;18.63;16.77;;;17.20;99.90;;;;;;4940080;28;38109;-81
2023/04/21 11:14:55;;;;;;;18.40;16.48;;;17.20;99.90;;;;;;4960128;28;37217;-79
2023/04/21 11:17:23;;;;;;;19.17;15.50;;;17.20;99.90;;;;;;4944314;28;37423;-80
2023/04/21 11:19:53;;;;;;;17.98;16.02;;;16.80;99.90;;;;;;4942893;28;38609;-80
2023/04/21 11:22:25;;;;;;;16.88;15.07;;;17.20;99.90;;;;;;4954927;28;39173;-78
2023/04/21 11:24:54;;;;;;;15.80;14.20;;;17.40;99.90;;;;;;4941923;28;37932;-80
2023/04/21 11:27:24;;;;;;;16.73;14.98;;;17.20;99.90;;;;;;4950615;28;37159;-82
2023/04/21 11:29:51;;;;;;;16.63;14.82;;;17.40;99.90;;;;;;4944037;28;37234;-78
2023/04/21 11:32:17;;;;;;;19.90;16.88;;;17.60;99.90;;;;;;4943130;28;38634;-79
2023/04/21 11:34:44;;;;;;;17.83;15.13;;;17.90;99.90;;;;;;4951660;28;37382;-80
2023/04/21 11:37:22;;;;;;;17.75;15.95;;;18.00;99.90;;;;;;4944306;28;38333;-79
2023/04/21 11:39:49;;;;;;;17.65;15.75;;;17.00;99.90;;;;;;4943754;28;37050;-80
2023/04/21 11:42:21;;;;;;;18.20;16.05;;;17.30;99.90;;;;;;4945441;28;39557;-81
2023/04/21 11:44:47;;;;;;;19.10;16.15;;;16.90;99.90;;;;;;4969666;28;38215;-81
2023/04/21 11:47:14;;;;;;;15.63;14.00;;;17.20;99.90;;;;;;4946487;28;37317;-81
2023/04/21 11:49:55;;;;;;;17.08;14.93;;;17.60;99.90;;;;;;4943527;28;37973;-79
2023/04/21 11:52:24;;;;;;;16.67;14.98;;;17.80;99.90;;;;;;4942613;28;37459;-79
2023/04/21 11:54:56;;;;;;;17.02;14.77;;;18.30;99.90;;;;;;4945457;28;39176;-79
2023/04/21 11:57:24;;;;;;;15.90;14.38;;;18.60;99.90;;;;;;4945573;28;37552;-79
2023/04/21 11:59:51;;;;;;;16.45;13.65;;;18.30;99.90;;;;;;4948082;28;36717;-79
2023/04/21 12:02:24;;;;;;;15.75;14.15;;;18.30;99.90;;;;;;4944431;28;39004;-74
2023/04/21 12:05:01;;;;;;;15.30;13.38;;;17.50;99.90;;;;;;4944362;28;37235;-80
2023/04/21 12:07:32;;;;;;;14.38;12.63;;;17.50;99.90;;;;;;4946285;28;38008;-81
2023/04/21 12:10:00;;;;;;;14.07;12.57;;;18.10;99.90;;;;;;4940906;28;36329;-82
2023/04/21 12:12:26;;;;;;;14.55;11.90;;;18.00;99.90;;;;;;4948146;28;38997;-82
2023/04/21 12:14:53;;;;;;;13.73;12.32;;;18.20;99.90;;;;;;4971423;28;39159;-77
2023/04/21 12:17:20;;;;;;;14.55;12.23;;;17.80;99.90;;;;;;4943222;28;37733;-76
2023/04/21 12:19:46;;;;;;;12.48;11.20;;;17.00;99.90;;;;;;4943337;28;38200;-76
2023/04/21 12:22:14;;;;;;;13.57;11.85;;;17.20;99.90;;;;;;4943788;28;37830;-77
2023/04/21 12:24:40;;;;;;;11.77;10.68;;;17.70;99.90;;;;;;4939399;28;37268;-77
2023/04/21 12:27:07;;;;;;;23.45;12.38;;;18.10;99.90;;;;;;4946647;28;37850;-76
2023/04/21 12:29:34;;;;;;;13.60;12.30;;;17.90;99.90;;;;;;4946416;28;38551;-82
2023/04/21 12:32:08;;;;;;;15.77;12.98;;;17.50;99.90;;;;;;4945795;28;39759;-83
2023/04/21 12:34:37;;;;;;;12.98;11.68;;;18.00;99.90;;;;;;4938305;28;47867;-83
2023/04/21 12:37:03;;;;;;;13.23;11.93;;;18.50;99.90;;;;;;4942756;28;38371;-81
2023/04/21 12:39:30;;;;;;;13.15;11.63;;;18.20;99.90;;;;;;4945431;28;37595;-82
2023/04/21 12:41:56;;;;;;;12.23;11.10;;;18.30;99.90;;;;;;4945793;28;38583;-81
2023/04/21 12:44:22;;;;;;;12.90;11.70;;;18.50;99.90;;;;;;4947251;28;39011;-81
2023/04/21 12:46:48;;;;;;;11.45;10.10;;;18.30;99.90;;;;;;4943140;28;37481;-80
2023/04/21 12:49:16;;;;;;;10.88;9.77;;;18.90;99.90;;;;;;4945573;28;36554;-79
2023/04/21 12:51:43;;;;;;;11.98;9.98;;;19.40;99.90;;;;;;4949476;28;38269;-80
2023/04/21 12:54:10;;;;;;;12.65;10.90;;;19.50;99.90;;;;;;4956744;28;38716;-80
2023/04/21 12:56:38;;;;;;;11.95;10.73;;;19.70;99.90;;;;;;4951392;28;37381;-81
2023/04/21 12:59:05;;;;;;;12.25;10.98;;;19.50;99.90;;;;;;4956517;28;37313;-80
2023/04/21 13:01:32;;;;;;;18.83;10.88;;;19.60;99.90;;;;;;4951687;28;37774;-80
2023/04/21 13:03:58;;;;;;;11.13;10.02;;;19.60;99.90;;;;;;4948307;28;36865;-78
2023/04/21 13:06:25;;;;;;;11.88;9.98;;;19.10;99.90;;;;;;4956025;28;37077;-77
2023/04/21 13:08:51;;;;;;;13.18;11.88;;;19.10;99.90;;;;;;4955904;28;36530;-78
2023/04/21 13:11:17;;;;;;;12.88;11.68;;;18.30;99.90;;;;;;4951109;28;39447;-79
2023/04/21 13:13:43;;;;;;;12.70;11.50;;;17.80;99.90;;;;;;4952536;28;38481;-85
2023/04/21 13:16:09;;;;;;;13.88;11.57;;;17.60;99.90;;;;;;4951145;28;39587;-75